createdAt,value
2022-12-18T00:01:19.881Z,10.43
2022-12-18T00:03:47.186Z,9.32
2022-12-18T00:06:14.781Z,8.55
2022-12-18T00:08:42.629Z,11.25
2022-12-18T00:11:12.545Z,9.77
2022-12-18T00:13:40.163Z,9.80
2022-12-18T00:16:10.571Z,9.60
2022-12-18T00:18:38.029Z,8.95
2022-12-18T00:21:06.971Z,10.57
2022-12-18T00:23:36.092Z,9.68
2022-12-18T00:26:05.751Z,9.70
2022-12-18T00:28:32.812Z,11.90
2022-12-18T00:31:08.356Z,9.75
2022-12-18T00:33:36.208Z,9.57
2022-12-18T00:36:08.315Z,9.10
2022-12-18T00:38:35.246Z,10.13
2022-12-18T00:41:02.301Z,8.52
2022-12-18T00:43:29.030Z,8.63
2022-12-18T00:45:55.957Z,9.63
2022-12-18T00:48:22.737Z,10.35
2022-12-18T00:50:50.835Z,10.07
2022-12-18T00:53:17.896Z,9.90
2022-12-18T00:55:46.107Z,8.68
2022-12-18T00:58:15.012Z,10.23
2022-12-18T01:00:41.980Z,8.65
2022-12-18T01:03:14.657Z,11.30
2022-12-18T01:05:43.427Z,8.75
2022-12-18T01:08:10.461Z,9.48
2022-12-18T01:10:37.133Z,9.88
2022-12-18T01:13:03.850Z,9.02
2022-12-18T01:15:30.274Z,8.48
2022-12-18T01:17:56.904Z,9.23
2022-12-18T01:20:23.528Z,11.35
2022-12-18T01:22:50.023Z,10.88
2022-12-18T01:25:16.610Z,10.35
2022-12-18T01:27:43.843Z,9.38
2022-12-18T01:30:11.158Z,8.05
2022-12-18T01:32:37.814Z,9.15
2022-12-18T01:35:04.823Z,8.82
2022-12-18T01:37:31.398Z,11.23
2022-12-18T01:39:58.211Z,8.88
2022-12-18T01:42:24.744Z,9.20
2022-12-18T01:45:01.407Z,8.50
2022-12-18T01:47:42.908Z,8.93
2022-12-18T01:50:15.784Z,9.60
2022-12-18T01:52:44.658Z,11.60
2022-12-18T01:57:39.942Z,9.57
2022-12-18T02:00:12.465Z,9.55
2022-12-18T02:02:44.604Z,8.25
2022-12-18T02:05:15.110Z,10.80
2022-12-18T02:07:45.570Z,10.05
2022-12-18T02:10:30.161Z,9.63
2022-12-18T02:12:59.668Z,8.50
2022-12-18T02:15:39.623Z,9.90
2022-12-18T02:18:16.961Z,9.10
2022-12-18T02:20:52.777Z,9.57
2022-12-18T02:23:49.590Z,8.90
2022-12-18T02:26:25.174Z,8.50
2022-12-18T02:29:01.416Z,7.55
2022-12-18T02:31:36.480Z,10.65
2022-12-18T02:34:07.575Z,8.18
2022-12-18T02:36:41.163Z,10.38
2022-12-18T02:39:11.659Z,10.57
2022-12-18T02:41:43.587Z,8.35
2022-12-18T02:44:13.584Z,8.02
2022-12-18T02:46:44.548Z,8.85
2022-12-18T02:49:28.656Z,9.40
2022-12-18T02:52:08.384Z,10.38
2022-12-18T02:54:52.698Z,10.07
2022-12-18T02:57:34.385Z,9.00
2022-12-18T03:02:47.473Z,9.60
2022-12-18T03:05:36.205Z,8.52
2022-12-18T03:08:09.438Z,9.40
2022-12-18T03:10:50.478Z,8.20
2022-12-18T03:13:25.442Z,8.13
2022-12-18T03:15:56.981Z,11.70
2022-12-18T03:18:33.650Z,8.27
2022-12-18T03:21:03.703Z,9.93
2022-12-18T03:23:36.242Z,9.32
2022-12-18T03:26:08.952Z,9.20
2022-12-18T03:28:43.253Z,8.70
2022-12-18T03:31:12.229Z,9.48
2022-12-18T03:33:46.586Z,8.90
2022-12-18T03:36:15.405Z,7.65
2022-12-18T03:38:42.232Z,7.72
2022-12-18T03:41:19.217Z,9.80
2022-12-18T03:44:07.249Z,9.00
2022-12-18T03:46:47.733Z,9.32
2022-12-18T03:49:24.416Z,6.75
2022-12-18T03:52:00.782Z,7.97
2022-12-18T03:54:29.491Z,7.57
2022-12-18T03:57:19.631Z,9.38
2022-12-18T03:59:53.891Z,10.25
2022-12-18T04:04:54.877Z,7.30
2022-12-18T04:07:23.305Z,7.60
2022-12-18T04:09:53.553Z,7.03
2022-12-18T04:12:24.725Z,8.57
2022-12-18T04:14:51.652Z,8.63
2022-12-18T04:17:18.494Z,6.82
2022-12-18T04:19:45.133Z,7.93
2022-12-18T04:22:12.164Z,7.45
2022-12-18T04:24:43.720Z,8.23
2022-12-18T04:27:17.773Z,6.85
2022-12-18T04:29:48.371Z,7.68
2022-12-18T04:32:15.679Z,8.30
2022-12-18T04:34:43.866Z,7.75
2022-12-18T04:37:10.524Z,6.45
2022-12-18T04:39:37.182Z,7.93
2022-12-18T04:42:09.414Z,7.88
2022-12-18T04:44:36.010Z,6.72
2022-12-18T04:47:02.480Z,7.70
2022-12-18T04:49:28.973Z,7.20
2022-12-18T04:51:55.519Z,7.57
2022-12-18T04:54:22.124Z,8.73
2022-12-18T04:56:48.587Z,7.80
2022-12-18T04:59:15.160Z,9.88
2022-12-18T05:01:41.717Z,8.88
2022-12-18T05:04:08.500Z,8.40
2022-12-18T05:06:35.201Z,7.22
2022-12-18T05:09:01.961Z,7.30
2022-12-18T05:11:28.444Z,7.05
2022-12-18T05:13:56.362Z,6.25
2022-12-18T05:16:23.135Z,6.28
2022-12-18T05:18:49.547Z,5.55
2022-12-18T05:21:16.159Z,7.32
2022-12-18T05:23:43.275Z,6.00
2022-12-18T05:26:14.940Z,6.32
2022-12-18T05:28:41.393Z,5.50
2022-12-18T05:31:07.922Z,7.45
2022-12-18T05:33:35.842Z,5.68
2022-12-18T05:36:04.494Z,5.57
2022-12-18T05:38:32.778Z,5.55
2022-12-18T05:40:59.728Z,5.28
2022-12-18T05:43:27.901Z,8.32
2022-12-18T05:45:55.236Z,5.97
2022-12-18T05:48:22.298Z,6.05
2022-12-18T05:50:49.905Z,5.35
2022-12-18T05:53:20.159Z,7.35
2022-12-18T05:55:47.282Z,8.07
2022-12-18T05:58:15.344Z,6.38
2022-12-18T06:00:43.695Z,5.68
2022-12-18T06:03:11.309Z,6.78
2022-12-18T06:05:43.597Z,6.72
2022-12-18T06:08:10.271Z,7.20
2022-12-18T06:10:37.580Z,7.00
2022-12-18T06:13:04.774Z,5.95
2022-12-18T06:15:31.251Z,6.13
2022-12-18T06:17:57.925Z,5.45
2022-12-18T06:20:26.919Z,7.15
2022-12-18T06:22:57.071Z,6.07
2022-12-18T06:25:23.671Z,6.95
2022-12-18T06:27:50.090Z,6.20
2022-12-18T06:30:17.025Z,6.72
2022-12-18T06:32:43.632Z,6.30
2022-12-18T06:35:10.464Z,6.82
2022-12-18T06:37:37.275Z,7.05
2022-12-18T06:40:04.021Z,6.15
2022-12-18T06:42:30.487Z,6.13
2022-12-18T06:44:56.995Z,6.55
2022-12-18T06:47:23.392Z,6.63
2022-12-18T06:49:49.829Z,6.65
2022-12-18T06:52:16.489Z,6.85
2022-12-18T06:54:42.943Z,8.82
2022-12-18T06:57:09.558Z,10.43
2022-12-18T06:59:36.291Z,8.05
2022-12-18T07:02:02.902Z,7.93
2022-12-18T07:04:32.241Z,7.75
2022-12-18T07:06:58.906Z,5.65
2022-12-18T07:09:25.648Z,6.88
2022-12-18T07:11:53.425Z,6.35
2022-12-18T07:14:20.816Z,6.30
2022-12-18T07:16:47.604Z,6.43
2022-12-18T07:19:14.381Z,6.95
2022-12-18T07:21:41.229Z,7.45
2022-12-18T07:24:08.102Z,8.05
2022-12-18T07:26:34.561Z,6.25
2022-12-18T07:29:01.179Z,9.23
2022-12-18T07:31:28.405Z,6.97
2022-12-18T07:33:55.136Z,7.03
2022-12-18T07:36:21.672Z,7.60
2022-12-18T07:38:49.266Z,7.25
2022-12-18T07:41:16.115Z,9.55
2022-12-18T07:43:43.513Z,8.85
2022-12-18T07:46:11.784Z,8.30
2022-12-18T07:48:41.305Z,8.70
2022-12-18T07:51:08.468Z,9.30
2022-12-18T07:53:36.913Z,10.27
2022-12-18T07:58:54.804Z,10.05
2022-12-18T08:01:21.654Z,9.88
2022-12-18T08:03:48.491Z,9.88
2022-12-18T08:06:16.464Z,10.45
2022-12-18T08:08:43.242Z,11.13
2022-12-18T08:11:10.077Z,11.63
2022-12-18T08:13:37.064Z,9.20
2022-12-18T08:16:06.881Z,8.38
2022-12-18T08:18:34.356Z,9.00
2022-12-18T08:21:10.711Z,8.45
2022-12-18T08:23:42.543Z,8.32
2022-12-18T08:26:09.612Z,7.22
2022-12-18T08:28:36.870Z,9.48
2022-12-18T08:31:03.584Z,10.90
2022-12-18T08:33:30.130Z,8.18
2022-12-18T08:35:56.600Z,9.88
2022-12-18T08:38:24.408Z,10.52
2022-12-18T08:40:55.134Z,9.98
2022-12-18T08:43:40.759Z,10.68
2022-12-18T08:46:08.743Z,8.90
2022-12-18T08:48:35.521Z,8.15
2022-12-18T08:51:02.041Z,9.32
2022-12-18T08:53:34.072Z,10.98
2022-12-18T08:56:02.461Z,9.05
2022-12-18T08:58:29.006Z,8.75
2022-12-18T09:01:01.113Z,8.50
2022-12-18T09:03:27.682Z,11.15
2022-12-18T09:05:54.245Z,10.52
2022-12-18T09:08:20.894Z,9.50
2022-12-18T09:10:49.715Z,8.68
2022-12-18T09:15:44.224Z,8.02
2022-12-18T09:18:10.812Z,10.00
2022-12-18T09:20:38.178Z,7.65
2022-12-18T09:23:05.771Z,9.38
2022-12-18T09:25:34.264Z,8.00
2022-12-18T09:28:01.178Z,10.00
2022-12-18T09:30:28.631Z,9.80
2022-12-18T09:32:55.187Z,9.48
2022-12-18T09:35:21.889Z,8.38
2022-12-18T09:37:48.581Z,9.73
2022-12-18T09:40:18.951Z,10.90
2022-12-18T09:42:49.102Z,7.53
2022-12-18T09:45:17.372Z,9.75
2022-12-18T09:47:46.791Z,9.90
2022-12-18T09:50:22.561Z,9.98
2022-12-18T09:52:54.488Z,11.88
2022-12-18T09:55:36.833Z,9.05
2022-12-18T09:58:32.052Z,10.05
2022-12-18T10:00:59.413Z,9.65
2022-12-18T10:03:25.941Z,8.10
2022-12-18T10:06:05.320Z,11.27
2022-12-18T10:08:47.138Z,7.90
2022-12-18T10:11:35.206Z,7.80
2022-12-18T10:14:40.683Z,9.07
2022-12-18T10:17:18.605Z,8.27
2022-12-18T10:19:51.230Z,9.93
2022-12-18T10:22:25.892Z,8.77
2022-12-18T10:25:16.847Z,8.55
2022-12-18T10:27:43.750Z,10.65
2022-12-18T10:30:16.181Z,8.43
2022-12-18T10:32:43.052Z,11.30
2022-12-18T10:35:21.721Z,10.95
2022-12-18T10:38:22.756Z,11.88
2022-12-18T10:43:37.607Z,9.90
2022-12-18T10:46:11.328Z,10.98
2022-12-18T10:48:48.360Z,9.10
2022-12-18T10:51:38.250Z,10.07
2022-12-18T10:54:27.415Z,9.10
2022-12-18T10:57:33.685Z,11.00
2022-12-18T11:00:21.282Z,9.30
2022-12-18T11:02:48.842Z,9.65
2022-12-18T11:05:37.926Z,8.65
2022-12-18T11:08:04.941Z,11.85
2022-12-18T11:10:41.876Z,10.43
2022-12-18T11:13:37.721Z,11.40
2022-12-18T11:16:04.711Z,9.23
2022-12-18T11:18:34.437Z,8.00
2022-12-18T11:21:11.021Z,10.75
2022-12-18T11:23:52.820Z,11.25
2022-12-18T11:29:08.120Z,10.10
2022-12-18T11:31:34.786Z,8.50
2022-12-18T11:34:31.274Z,9.82
2022-12-18T11:37:00.893Z,7.60
2022-12-18T11:39:42.190Z,8.43
2022-12-18T11:42:12.269Z,7.88
2022-12-18T11:44:49.599Z,10.43
2022-12-18T11:47:35.135Z,10.68
2022-12-18T11:50:03.954Z,10.23
2022-12-18T11:55:12.912Z,12.60
2022-12-18T11:57:43.942Z,9.52
2022-12-18T12:00:17.949Z,10.57
2022-12-18T12:03:14.722Z,10.65
2022-12-18T12:06:15.534Z,10.85
2022-12-18T12:09:13.401Z,13.02
2022-12-18T12:12:00.103Z,12.82
2022-12-18T12:14:54.295Z,11.23
2022-12-18T12:17:46.439Z,10.20
2022-12-18T12:20:41.047Z,11.32
2022-12-18T12:25:42.829Z,11.55
2022-12-18T12:28:35.013Z,12.13
2022-12-18T12:31:04.581Z,11.52
2022-12-18T12:33:43.476Z,12.48
2022-12-18T12:36:27.515Z,12.60
2022-12-18T12:38:58.580Z,12.43
2022-12-18T12:41:47.042Z,14.95
2022-12-18T12:44:43.134Z,12.40
2022-12-18T12:47:21.564Z,11.32
2022-12-18T12:49:50.819Z,12.05
2022-12-18T12:52:42.754Z,10.95
2022-12-18T12:55:18.262Z,12.15
2022-12-18T12:57:56.403Z,13.85
2022-12-18T13:00:25.206Z,11.90
2022-12-18T13:03:04.480Z,14.02
2022-12-18T13:05:39.695Z,15.85
2022-12-18T13:08:12.035Z,14.65
2022-12-18T13:10:40.120Z,13.85
2022-12-18T13:13:16.469Z,12.00
2022-12-18T13:15:46.883Z,14.60
2022-12-18T13:18:24.809Z,13.10
2022-12-18T13:21:03.324Z,13.20
2022-12-18T13:23:37.700Z,13.02
2022-12-18T13:26:09.186Z,15.70
2022-12-18T13:28:47.818Z,12.88
2022-12-18T13:31:16.206Z,13.60
2022-12-18T13:36:35.233Z,16.90
2022-12-18T13:39:35.154Z,14.23
2022-12-18T13:42:08.466Z,14.93
2022-12-18T13:44:41.007Z,16.23
2022-12-18T13:47:33.281Z,15.43
2022-12-18T13:50:02.440Z,16.95
2022-12-18T13:52:34.374Z,13.48
2022-12-18T13:55:03.194Z,14.50
2022-12-18T13:57:31.102Z,16.13
2022-12-18T13:59:58.721Z,18.17
2022-12-18T14:02:28.352Z,13.48
2022-12-18T14:04:56.437Z,15.65
2022-12-18T14:07:26.204Z,17.83
2022-12-18T14:10:06.453Z,16.88
2022-12-18T14:13:00.893Z,16.20
2022-12-18T14:15:37.983Z,20.13
2022-12-18T14:18:24.606Z,15.77
2022-12-18T14:20:53.591Z,16.42
2022-12-18T14:23:37.360Z,15.90
2022-12-18T14:26:22.320Z,18.63
2022-12-18T14:28:49.281Z,16.23
2022-12-18T14:31:20.624Z,15.45
2022-12-18T14:33:47.733Z,15.70
2022-12-18T14:36:19.891Z,15.45
2022-12-18T14:38:54.579Z,16.05
2022-12-18T14:41:22.322Z,18.27
2022-12-18T14:43:54.872Z,16.10
2022-12-18T14:46:34.532Z,15.80
2022-12-18T14:49:06.695Z,19.98
2022-12-18T14:51:35.301Z,16.55
2022-12-18T14:54:15.712Z,16.15
2022-12-18T14:56:51.126Z,17.88
2022-12-18T15:02:05.909Z,17.23
2022-12-18T15:04:36.098Z,19.00
2022-12-18T15:07:12.312Z,19.95
2022-12-18T15:09:41.203Z,19.20
2022-12-18T15:14:52.094Z,16.48
2022-12-18T15:17:23.303Z,19.67
2022-12-18T15:19:54.800Z,17.60
2022-12-18T15:22:30.099Z,18.52
2022-12-18T15:24:58.989Z,20.60
2022-12-18T15:30:19.124Z,16.80
2022-12-18T15:32:45.981Z,18.92
2022-12-18T15:35:12.530Z,17.60
2022-12-18T15:37:38.980Z,18.13
2022-12-18T15:40:07.424Z,18.52
2022-12-18T15:42:52.289Z,20.63
2022-12-18T15:45:19.245Z,20.05
2022-12-18T15:47:46.715Z,18.95
2022-12-18T15:50:13.274Z,18.17
2022-12-18T15:52:46.721Z,16.83
2022-12-18T15:55:33.630Z,21.27
2022-12-18T15:58:01.519Z,21.48
2022-12-18T16:00:28.413Z,18.45
2022-12-18T16:02:55.060Z,17.17
2022-12-18T16:05:22.926Z,17.70
2022-12-18T16:07:49.619Z,20.63
2022-12-18T16:10:16.215Z,19.65
2022-12-18T16:12:43.467Z,19.80
2022-12-18T16:15:14.345Z,19.17
2022-12-18T16:17:41.680Z,19.73
2022-12-18T16:20:16.944Z,25.58
2022-12-18T16:22:46.769Z,21.50
2022-12-18T16:25:32.062Z,19.77
2022-12-18T16:27:59.151Z,24.15
2022-12-18T16:30:32.716Z,21.05
2022-12-18T16:33:05.399Z,20.92
2022-12-18T16:35:33.498Z,22.85
2022-12-18T16:37:59.933Z,20.58
2022-12-18T16:40:26.401Z,22.30
2022-12-18T16:42:52.953Z,23.55
2022-12-18T16:45:20.108Z,22.15
2022-12-18T16:47:46.679Z,24.67
2022-12-18T16:50:13.254Z,23.35
2022-12-18T16:52:39.959Z,22.05
2022-12-18T16:55:07.408Z,24.08
2022-12-18T16:57:33.996Z,20.45
2022-12-18T17:00:05.050Z,24.92
2022-12-18T17:02:32.815Z,23.35
2022-12-18T17:04:59.563Z,25.15
2022-12-18T17:07:28.032Z,22.88
2022-12-18T17:09:54.870Z,24.73
2022-12-18T17:12:21.807Z,24.55
2022-12-18T17:14:48.529Z,25.88
2022-12-18T17:17:23.793Z,25.17
2022-12-18T17:22:17.457Z,24.70
2022-12-18T17:24:44.170Z,22.55
2022-12-18T17:27:10.721Z,25.48
2022-12-18T17:29:41.164Z,23.83
2022-12-18T17:32:12.106Z,27.98
2022-12-18T17:34:40.999Z,26.08
2022-12-18T17:37:07.893Z,23.67
2022-12-18T17:39:34.507Z,26.48
2022-12-18T17:42:01.413Z,25.48
2022-12-18T17:44:28.057Z,24.75
2022-12-18T17:46:54.566Z,24.13
2022-12-18T17:49:21.709Z,26.40
2022-12-18T17:51:48.932Z,28.58
2022-12-18T17:54:15.578Z,26.08
2022-12-18T17:56:42.054Z,25.20
2022-12-18T17:59:08.995Z,25.33
2022-12-18T18:01:40.950Z,25.95
2022-12-18T18:04:10.988Z,28.73
2022-12-18T18:06:39.026Z,29.10
2022-12-18T18:09:06.704Z,28.02
2022-12-18T18:11:57.176Z,25.05
2022-12-18T18:14:23.678Z,24.17
2022-12-18T18:16:52.148Z,26.73
2022-12-18T18:19:22.148Z,25.85
2022-12-18T18:21:50.393Z,29.15
2022-12-18T18:24:20.830Z,23.30
2022-12-18T18:26:47.498Z,25.33
2022-12-18T18:29:17.250Z,27.90
2022-12-18T18:31:43.953Z,28.02
2022-12-18T18:34:16.342Z,27.40
2022-12-18T18:36:42.988Z,28.52
2022-12-18T18:39:10.068Z,27.60
2022-12-18T18:41:37.068Z,30.02
2022-12-18T18:44:03.975Z,28.70
2022-12-18T18:46:30.582Z,27.38
2022-12-18T18:48:57.228Z,30.52
2022-12-18T18:51:24.309Z,28.55
2022-12-18T18:53:52.766Z,27.02
2022-12-18T18:57:04.110Z,26.88
2022-12-18T18:59:09.357Z,29.17
2022-12-18T19:01:36.407Z,28.10
2022-12-18T19:04:05.007Z,30.25
2022-12-18T19:06:31.900Z,29.83
2022-12-18T19:09:02.817Z,27.58
2022-12-18T19:11:49.062Z,32.45
2022-12-18T19:14:16.474Z,29.73
2022-12-18T19:16:45.503Z,29.48
2022-12-18T19:19:13.171Z,25.85
2022-12-18T19:21:41.162Z,29.40
2022-12-18T19:24:08.076Z,32.03
2022-12-18T19:29:07.230Z,30.30
2022-12-18T19:31:36.323Z,26.95
2022-12-18T19:34:05.181Z,28.70
2022-12-18T19:36:32.835Z,26.73
2022-12-18T19:39:01.686Z,29.02
2022-12-18T19:41:29.155Z,31.10
2022-12-18T19:43:58.593Z,28.55
2022-12-18T19:46:26.595Z,32.05
2022-12-18T19:48:53.624Z,29.83
2022-12-18T19:51:23.073Z,28.70
2022-12-18T19:53:56.418Z,28.98
2022-12-18T19:58:54.049Z,29.27
2022-12-18T20:01:22.288Z,30.88
2022-12-18T20:03:52.246Z,32.80
2022-12-18T20:06:23.720Z,29.92
2022-12-18T20:08:51.898Z,30.65
2022-12-18T20:11:20.811Z,30.67
2022-12-18T20:13:47.454Z,28.08
2022-12-18T20:16:14.050Z,29.98
2022-12-18T20:18:40.686Z,29.63
2022-12-18T20:21:13.617Z,25.48
2022-12-18T20:23:40.961Z,34.63
2022-12-18T20:26:07.803Z,30.83
2022-12-18T20:28:35.678Z,28.15
2022-12-18T20:31:06.536Z,29.27
2022-12-18T20:33:33.202Z,28.95
2022-12-18T20:36:07.972Z,31.85
2022-12-18T20:41:04.808Z,29.77
2022-12-18T20:43:31.488Z,31.10
2022-12-18T20:46:06.111Z,26.48
2022-12-18T20:48:33.439Z,28.88
2022-12-18T20:51:03.701Z,33.88
2022-12-18T20:53:30.658Z,30.98
2022-12-18T20:55:57.243Z,26.55
2022-12-18T20:58:24.285Z,30.83
2022-12-18T21:01:01.799Z,31.95
2022-12-18T21:03:28.748Z,30.95
2022-12-18T21:05:55.248Z,32.63
2022-12-18T21:08:21.706Z,32.38
2022-12-18T21:10:48.362Z,30.55
2022-12-18T21:13:16.220Z,32.35
2022-12-18T21:15:43.653Z,29.80
2022-12-18T21:18:10.381Z,30.95
2022-12-18T21:20:37.170Z,27.35
2022-12-18T21:23:15.883Z,25.88
2022-12-18T21:25:44.404Z,25.88
2022-12-18T21:28:12.205Z,29.35
2022-12-18T21:30:38.843Z,30.80
2022-12-18T21:33:05.492Z,30.83
2022-12-18T21:35:32.242Z,31.52
2022-12-18T21:37:58.779Z,27.60
2022-12-18T21:40:25.510Z,28.00
2022-12-18T21:43:11.272Z,29.02
2022-12-18T21:45:44.037Z,30.25
2022-12-18T21:48:12.289Z,31.17
2022-12-18T21:50:39.016Z,27.83
2022-12-18T21:53:05.667Z,31.65
2022-12-18T21:55:32.167Z,29.83
2022-12-18T21:57:59.125Z,32.90
2022-12-18T22:00:25.601Z,29.45
2022-12-18T22:03:09.424Z,30.02
2022-12-18T22:05:38.723Z,28.27
2022-12-18T22:08:06.688Z,29.88
2022-12-18T22:10:33.891Z,29.25
2022-12-18T22:13:00.735Z,29.45
2022-12-18T22:15:27.352Z,31.58
2022-12-18T22:17:56.932Z,31.40
2022-12-18T22:20:26.746Z,28.25
2022-12-18T22:22:53.506Z,29.80
2022-12-18T22:25:20.026Z,29.23
2022-12-18T22:28:07.111Z,29.63
2022-12-18T22:30:33.755Z,29.50
2022-12-18T22:33:00.188Z,31.17
2022-12-18T22:35:26.667Z,31.63
2022-12-18T22:37:53.198Z,29.65
2022-12-18T22:40:25.731Z,24.83
2022-12-18T22:42:56.270Z,27.67
2022-12-18T22:45:23.377Z,29.40
2022-12-18T22:47:50.333Z,32.90
2022-12-18T22:50:16.745Z,29.17
2022-12-18T22:52:43.311Z,27.73
2022-12-18T22:55:09.728Z,31.08
2022-12-18T22:57:36.616Z,28.17
2022-12-18T23:00:06.025Z,29.88
2022-12-18T23:02:32.700Z,27.13
2022-12-18T23:04:59.526Z,29.52
2022-12-18T23:07:26.169Z,30.67
2022-12-18T23:09:58.419Z,27.20
2022-12-18T23:12:27.319Z,27.35
2022-12-18T23:14:54.105Z,28.98
2022-12-18T23:17:20.537Z,29.88
2022-12-18T23:19:49.223Z,27.58
2022-12-18T23:22:17.199Z,28.92
2022-12-18T23:24:44.244Z,31.60
2022-12-18T23:27:11.696Z,25.60
2022-12-18T23:29:39.353Z,28.60
2022-12-18T23:32:06.288Z,29.80
2022-12-18T23:34:33.056Z,27.33
2022-12-18T23:37:01.032Z,24.85
2022-12-18T23:39:29.580Z,28.25
2022-12-18T23:42:00.033Z,28.95
2022-12-18T23:44:27.298Z,26.85
2022-12-18T23:46:54.050Z,28.60
2022-12-18T23:49:20.760Z,30.05
2022-12-18T23:51:47.205Z,26.92
2022-12-18T23:54:13.829Z,30.88
2022-12-18T23:56:40.402Z,30.50
2022-12-18T23:59:06.937Z,24.73
